New Elliott, Indiana
Current Conditions -  °F | °C
As of 8:35 PM on Thursday 20 Nov 2014 (Local Time) from KIGQ Reporting Station
Clear Clear  
Wind Chill:   Ceiling: Unl
Heat Index: 21°   Visibility: 10mi
Dew Point:   Wind: 12mph
Humidity: 50%   Direction: 310°NW
Pressure: 30.22"   Gusts: NA
Location:  41.5177°N, 87.4208°W
Report Text: KIGQ 210235Z AUTO 31010KT 10SM CLR M06/M15 A3022 RMK AO2 T10601150
Loading
Personal Weather Stations






























Interactive Weather Map New forecast layout! Learn more

10-Day Weather Forecast

Advertisements
Track Severe Weather on mobile